Latest Weather Observations for Thevenard

IDS60801

Issued at 6:05 am CDT Monday 24 November 2014 (issued every 30 minutes, with the page automatically refreshed every 10 minutes)

About weather observations | Map of weather stations | Latest weather observations for SA | Other Formats
Station Details ID: 018200 Name: THEVENARD WIND Lat: -32.18 Lon: 133.63 Height: 8.85 m
Data from the previous 72 hours. | See also: Recent months for locations in South Australia
Date/Time
CDT
Temp
°C
App
Temp
°C
Dew
Point
Rel
Hum
%
Delta-T
°C
Wind Press
QNH
hPa
Press
MSL
hPa
Rain
since 9 am
mm
Dir
 
Spd
km/h
Gust
km/h
Spd
kts
Gust
kts
24/06:00am - - - - - SSW 39 46 21 25 - - -
24/05:30am - - - - - SSW 37 43 20 23 - - -
24/05:00am - - - - - SSW 39 46 21 25 - - -
24/04:30am - - - - - SSW 39 46 21 25 - - -
24/04:00am - - - - - S 43 56 23 30 - - -
24/03:30am - - - - - S 43 52 23 28 - - -
24/03:00am - - - - - S 44 56 24 30 - - -
24/02:30am - - - - - S 44 54 24 29 - - -
24/02:00am - - - - - S 43 56 23 30 - - -
24/01:30am - - - - - S 46 56 25 30 - - -
24/01:00am - - - - - S 43 54 23 29 - - -
24/12:30am - - - - - S 44 56 24 30 - - -
24/12:00am - - - - - S 41 54 22 29 - - -
 
Date/Time
CDT
Temp
°C
App
Temp
°C
Dew
Point
Rel
Hum
%
Delta-T
°C
Wind Press
QNH
hPa
Press
MSL
hPa
Rain
since 9 am
mm
Dir
 
Spd
km/h
Gust
km/h
Spd
kts
Gust
kts
23/11:30pm - - - - - S 41 50 22 27 - - -
23/11:00pm - - - - - S 37 46 20 25 - - -
23/10:30pm - - - - - S 39 48 21 26 - - -
23/10:00pm - - - - - S 39 46 21 25 - - -
23/09:30pm - - - - - SSE 46 54 25 29 - - -
23/09:00pm - - - - - S 46 54 25 29 - - -
23/08:30pm - - - - - S 43 52 23 28 - - -
23/08:00pm - - - - - SSE 44 54 24 29 - - -
23/07:30pm - - - - - SSE 43 52 23 28 - - -
23/07:00pm - - - - - SSE 44 57 24 31 - - -
23/06:30pm - - - - - SSE 44 56 24 30 - - -
23/06:00pm - - - - - SSE 44 54 24 29 - - -
23/05:30pm - - - - - S 48 57 26 31 - - -
23/05:00pm - - - - - S 44 54 24 29 - - -
23/04:30pm - - - - - S 43 50 23 27 - - -
23/04:00pm - - - - - S 41 46 22 25 - - -
23/03:30pm - - - - - S 37 43 20 23 - - -
23/03:00pm - - - - - S 35 43 19 23 - - -
23/02:30pm - - - - - S 35 43 19 23 - - -
23/02:00pm - - - - - S 35 41 19 22 - - -
23/01:30pm - - - - - S 33 39 18 21 - - -
23/01:00pm - - - - - S 33 39 18 21 - - -
23/12:30pm - - - - - S 32 39 17 21 - - -
23/12:00pm - - - - - S 30 33 16 18 - - -
23/11:30am - - - - - S 20 22 11 12 - - -
23/11:00am - - - - - SSE 24 26 13 14 - - -
23/10:30am - - - - - SSE 20 22 11 12 - - -
23/10:00am - - - - - SSE 19 22 10 12 - - -
23/09:30am - - - - - SE 17 22 9 12 - - -
23/09:00am - - - - - SE 17 24 9 13 - - -
23/08:30am - - - - - SE 22 28 12 15 - - -
23/08:00am - - - - - SE 20 28 11 15 - - -
23/07:30am - - - - - SE 13 17 7 9 - - -
23/07:00am - - - - - E 13 19 7 10 - - -
23/06:30am - - - - - E 19 22 10 12 - - -
23/06:00am - - - - - E 22 30 12 16 - - -
23/05:30am - - - - - ENE 24 33 13 18 - - -
23/05:00am - - - - - E 24 32 13 17 - - -
23/04:30am - - - - - E 24 30 13 16 - - -
23/04:00am - - - - - E 28 35 15 19 - - -
23/03:30am - - - - - ESE 32 39 17 21 - - -
23/03:00am - - - - - E 30 37 16 20 - - -
23/02:30am - - - - - ESE 30 39 16 21 - - -
23/02:00am - - - - - SE 28 39 15 21 - - -
23/01:30am - - - - - SE 33 41 18 22 - - -
23/01:00am - - - - - SSE 33 39 18 21 - - -
23/12:30am - - - - - SSE 33 39 18 21 - - -
23/12:00am - - - - - SSE 35 43 19 23 - - -
 
Date/Time
CDT
Temp
°C
App
Temp
°C
Dew
Point
Rel
Hum
%
Delta-T
°C
Wind Press
QNH
hPa
Press
MSL
hPa
Rain
since 9 am
mm
Dir
 
Spd
km/h
Gust
km/h
Spd
kts
Gust
kts
22/11:30pm - - - - - SSE 35 43 19 23 - - -
22/11:00pm - - - - - SSE 37 44 20 24 - - -
22/10:30pm - - - - - SSE 35 44 19 24 - - -
22/10:00pm - - - - - SSE 37 43 20 23 - - -
22/09:30pm - - - - - S 37 46 20 25 - - -
22/09:00pm - - - - - S 39 44 21 24 - - -
22/08:30pm - - - - - S 35 43 19 23 - - -
22/08:00pm - - - - - S 35 39 19 21 - - -
22/07:30pm - - - - - S 35 43 19 23 - - -
22/07:00pm - - - - - S 33 37 18 20 - - -
22/06:30pm - - - - - S 35 41 19 22 - - -
22/06:00pm - - - - - SSW 33 37 18 20 - - -
22/05:30pm - - - - - SSW 32 37 17 20 - - -
22/05:00pm - - - - - SSW 30 35 16 19 - - -
22/04:30pm - - - - - S 28 32 15 17 - - -
22/04:00pm - - - - - S 28 32 15 17 - - -
22/03:30pm - - - - - S 24 28 13 15 - - -
22/03:00pm - - - - - S 20 24 11 13 - - -
22/02:30pm - - - - - S 22 26 12 14 - - -
22/02:00pm - - - - - S 20 24 11 13 - - -
22/01:30pm - - - - - S 20 22 11 12 - - -
22/01:00pm - - - - - S 17 19 9 10 - - -
22/12:30pm - - - - - S 17 19 9 10 - - -
22/12:00pm - - - - - S 19 22 10 12 - - -
22/11:30am - - - - - SSE 19 20 10 11 - - -
22/11:00am - - - - - SSE 22 24 12 13 - - -
22/10:30am - - - - - SSE 24 30 13 16 - - -
22/10:00am - - - - - S 26 32 14 17 - - -
22/09:30am - - - - - S 28 33 15 18 - - -
22/09:00am - - - - - S 32 37 17 20 - - -
22/08:30am - - - - - S 28 37 15 20 - - -
22/08:00am - - - - - S 30 35 16 19 - - -
22/07:30am - - - - - S 32 39 17 21 - - -
22/07:00am - - - - - SSW 30 35 16 19 - - -
22/06:30am - - - - - S 32 39 17 21 - - -
22/06:00am - - - - - S 35 41 19 22 - - -
22/05:30am - - - - - S 33 44 18 24 - - -
22/05:00am - - - - - S 35 41 19 22 - - -
22/04:30am - - - - - S 39 44 21 24 - - -
22/04:00am - - - - - S 39 46 21 25 - - -
22/03:45am - - - - - SSW 37 46 20 25 - - -
22/03:30am - - - - - WSW 30 39 16 21 - - -
22/03:00am - - - - - NNE 24 28 13 15 - - -
22/02:30am - - - - - NNE 22 26 12 14 - - -
22/02:00am - - - - - NNE 24 28 13 15 - - -
22/01:30am - - - - - NNE 24 32 13 17 - - -
22/01:00am - - - - - NE 17 19 9 10 - - -
22/12:30am - - - - - NE 22 24 12 13 - - -
22/12:00am - - - - - NE 22 24 12 13 - - -
 
Date/Time
CDT
Temp
°C
App
Temp
°C
Dew
Point
Rel
Hum
%
Delta-T
°C
Wind Press
QNH
hPa
Press
MSL
hPa
Rain
since 9 am
mm
Dir
 
Spd
km/h
Gust
km/h
Spd
kts
Gust
kts
21/11:30pm - - - - - NE 20 22 11 12 - - -
21/11:00pm - - - - - NE 20 22 11 12 - - -
21/10:30pm - - - - - NE 24 26 13 14 - - -
21/10:00pm - - - - - ENE 20 24 11 13 - - -
21/09:30pm - - - - - E 19 20 10 11 - - -
21/09:00pm - - - - - E 17 20 9 11 - - -
21/08:30pm - - - - - ESE 11 11 6 6 - - -
21/08:00pm - - - - - ESE 11 13 6 7 - - -
21/07:30pm - - - - - E 13 15 7 8 - - -
21/07:00pm - - - - - ESE 11 13 6 7 - - -
21/06:30pm - - - - - E 9 13 5 7 - - -
21/06:00pm - - - - - ENE 7 11 4 6 - - -
21/05:30pm - - - - - NE 6 7 3 4 - - -
21/05:00pm - - - - - N 7 11 4 6 - - -
21/04:30pm - - - - - N 9 11 5 6 - - -
21/04:00pm - - - - - NNE 17 19 9 10 - - -
21/03:30pm - - - - - N 11 13 6 7 - - -
21/03:00pm - - - - - NNE 11 15 6 8 - - -
21/02:30pm - - - - - NNE 9 15 5 8 - - -
21/02:00pm - - - - - NNE 13 19 7 10 - - -
21/01:30pm - - - - - N 11 17 6 9 - - -
21/01:00pm - - - - - NNE 11 13 6 7 - - -
21/12:30pm - - - - - NNE 9 11 5 6 - - -
21/12:00pm - - - - - NNE 11 15 6 8 - - -
21/11:30am - - - - - NNE 13 17 7 9 - - -
21/11:00am - - - - - NNE 15 19 8 10 - - -
21/10:30am - - - - - NE 15 19 8 10 - - -
21/10:00am - - - - - NE 11 15 6 8 - - -
21/09:30am - - - - - NE 15 19 8 10 - - -
21/09:00am - - - - - NE 19 24 10 13 - - -
21/08:30am - - - - - ENE 17 20 9 11 - - -
21/08:00am - - - - - NE 20 24 11 13 - - -
21/07:30am - - - - - ENE 17 20 9 11 - - -
21/07:00am - - - - - ENE 19 20 10 11 - - -
21/06:30am - - - - - ENE 19 22 10 12 - - -

Other Formats:

Comma delimited format used in spreadsheet applications
http://www.bom.gov.au/fwo/IDS60801/IDS60801.95653.axf

JavaScript Object Notation format (JSON) in row-major order
http://www.bom.gov.au/fwo/IDS60801/IDS60801.95653.json